ASN logo
Last updated: 27 September 2021
Statuts:Enquête Officielle
Date:jeudi 14 juin 2018
Heure:20:40
Type/Sous-type:Silhouette image of generic MD83 model; specific model in this crash may look slightly different
McDonnell Douglas MD-83
Compagnie:Bravo Airways
Immatriculation: UR-CPR
Numéro de série: 49946/1898
Année de Fabrication: 1991-07-18 (26 years 11 months)
Heures de vol:43105
Cycles:46810
Moteurs: 2 Pratt & Whitney JT9D-219
Equipage:victimes: 0 / à bord: 7
Passagers:victimes: 0 / à bord: 169
Total:victimes: 0 / à bord: 176
Dégats de l'appareil: Substantiels
Conséquences: Written off (damaged beyond repair)
Lieu de l'accident:Kiev-Igor Sikorsky International Airport (IEV) (   Ukraine)
Phase de vol: A l'atterrissage (LDG)
Nature:Charter International
Aéroport de départ:Antalya Airport (AYT/LTAI), Turquie
Aéroport de destination:Kiev-Igor Sikorsky International Airport (IEV/UKKK), Ukraine
Numéro de vol:BAY4406
Détails:
Bravo Airways flight 4406 from Antalya, Turkey, suffered a runway excursion after landing on runway 08 at Kiev's Igor Sikorsky International Airport, Ukraine. There were no injuries among the 176 occupants.
Prior to departure from Antalya, the flight crew did not obtain the most recent weather reports and forecasts for Kiev.
At the time of the approach a thunderstorm was passing the airport. The specific weather conditions were reported on the ATIS channel, but the flight crew did not listen out this frequency.
The flight was cleared for an ILS approach to runway 08. However, at an altitude of 1000 feet, the approach was not stabilized. The flight crew should have aborted the approach, but the captain decided to continue. The aircraft touched down 7 m to the left of the centreline. Since the spoilers were not armed on approach, they did not automatically release and the flight crew failed to manually release the spoilers.
The aircraft remained controlled until the engines entered the reverse thrust value of 1.3 EPR, and after increasing the reverse thrust above 1.3 EPR, the aircraft did not respond to the use of rudder and moved by inertia under the influence of external forces.
The MD-83 slid off the side of the runway, sustaining serious damage.

Probable Cause:

Cause:
The cause of the accident - rolling out of the runway of the aircraft MD-83 UR-CPR of the airline "Bravo", which occurred on June 14, 2018 at the airport Kiev (Zhulyany) during the flight BAY 4406 on the route Antalya-Kiev (Zhulyany), was the decision of the CPS to continue landing at the airport Kiev (Zhulyany) in a thunderstorm at the airport with the following main factors:
- unstabilized landing approach, starting at an altitude of 1000 feet;
- non-release of spoilers by the crew;
- incorrect actions of the crew on the application of reverse on a wet runway (EPR> 1,3)

Related factors:
- flight information service in the classified airspace of Ukraine was not fully provided to the crew, which is required by the order of the Ministry of Transport of Ukraine dated 16.04.2003 ? 293;
- wind, varying in strength and direction;
- the crew were probably not listening to current ATIS messages at Kyiv (Zhulyany) airfield;
- there are no landing procedures in the Bravo Airways Operation Manual;
- low-quality pre-flight, preparation, reading and execution of the checklists at all stages of the flight

Accident investigation:
cover
Investigating agency: NBAAI Ukraine
Status: Investigation completed
Duration: 2 years and 3 months
Accident number: final report
Download report: Final report

Sources:
» Flightradar24
» nashkiev.ua

METAR Weather report:
17:00 UTC / 20:00 local time:
UKKK 141700Z 11004MPS CAVOK 25/17 Q1007 R08/70D NOSIG

17:21 UTC / 20:21 local time:
UKKK 141721Z 11006MPS 9000 -TSRA SCT026CB 25/18 Q1007 R08/70D TEMPO VRB10G17MPS 2100 -TSRA BKN025CB

17:30 UTC / 20:30 local time:
UKKK 141730Z 10006MPS 070V130 7000 -TSRA SCT021CB BKN043 23/19 Q1007 R08/290354 TEMPO VRB10G17MPS 1000 TSRA SQ BKN025CB

17:41 UTC / 20:41 local time:
UKKK 141741Z 10008G16MPS 9999 -TSRA SCT021CB BKN041 22/19 Q1007 R08/290354 TEMPO VRB10G17MPS 1000 TSRA SQ BKN025CB
Wind 100 degrees at 16 knots, gusting to 31 knots; light rain associated with thunderstorm; scattered Cumulonimbus clouds at 2100 feet; wind temporarily varying at 19 knots, gusting to 33 knots

18:00 UTC / 21:00 local time:
UKKK 141800Z 25008G13MPS 180V280 7000 1900E TSRA SCT014 BKN026CB 19/17 Q1008 R08/290354 TEMPO VRB10G17MPS 1000 TSRA SQ BKN025CB


Photos

Add your photo of this accident or aircraft

Video, social media

Plan
Ce plan montre l'aéroport de départ ainsi que la supposée destination du vol. La ligne fixe reliant les deux aéroports n'est pas le plan de vol exact.
La distance entre Antalya Airport et Kiev-Igor Sikorsky International Airport est de 1491 km (932 miles).

Les informations ci-dessus ne représentent pas l'opinion de la 'Flight Safety Foundation' ou de 'Aviation Safety Network' sur les causes de l'accident. Ces informations prélimimaires sont basées sur les faits tel qu'ils sont connus à ce jour.
languages: languages

Share

MD-80

  • 1194 built
  • 43ème loss
» safety profile

 Ukraine
  • le accident 84ème le plus grave (à ce moment là)
  • le accident 87ème le plus grave (en ce moment)
» safety profile